createdAt,value
2017-07-24T00:01:59.336Z,26.07
2017-07-24T00:04:27.084Z,25.98
2017-07-24T00:06:54.964Z,26.23
2017-07-24T00:09:22.649Z,26.01
2017-07-24T00:11:50.279Z,26.04
2017-07-24T00:14:18.069Z,26.05
2017-07-24T00:16:45.658Z,26.13
2017-07-24T00:19:13.307Z,26.07
2017-07-24T00:21:40.913Z,26.01
2017-07-24T00:24:08.499Z,25.99
2017-07-24T00:26:36.120Z,25.98
2017-07-24T00:29:03.737Z,25.89
2017-07-24T00:31:31.352Z,25.68
2017-07-24T00:33:58.988Z,25.47
2017-07-24T00:36:26.541Z,25.47
2017-07-24T00:38:54.364Z,25.43
2017-07-24T00:41:22.161Z,25.59
2017-07-24T00:43:49.725Z,25.56
2017-07-24T00:46:17.358Z,25.60
2017-07-24T00:48:44.949Z,25.59
2017-07-24T00:51:12.494Z,25.69
2017-07-24T00:53:40.315Z,25.73
2017-07-24T00:56:08.115Z,25.68
2017-07-24T00:58:35.886Z,25.81
2017-07-24T01:01:03.481Z,25.92
2017-07-24T01:03:31.118Z,25.91
2017-07-24T01:05:59.790Z,25.89
2017-07-24T01:08:27.403Z,25.86
2017-07-24T01:10:55.172Z,25.82
2017-07-24T01:13:22.758Z,25.72
2017-07-24T01:15:50.371Z,25.67
2017-07-24T01:18:18.028Z,25.59
2017-07-24T01:20:45.674Z,25.61
2017-07-24T01:23:13.302Z,25.43
2017-07-24T01:25:40.915Z,24.91
2017-07-24T01:28:08.576Z,24.93
2017-07-24T01:30:36.602Z,24.60
2017-07-24T01:33:04.205Z,24.73
2017-07-24T01:35:32.533Z,24.57
2017-07-24T01:38:00.140Z,24.77
2017-07-24T01:40:27.698Z,24.82
2017-07-24T01:42:55.281Z,24.73
2017-07-24T01:45:22.878Z,24.79
2017-07-24T01:47:50.432Z,24.62
2017-07-24T01:50:18.087Z,24.71
2017-07-24T01:52:47.284Z,24.89
2017-07-24T01:55:14.887Z,25.05
2017-07-24T01:57:42.479Z,25.14
2017-07-24T02:00:10.205Z,25.17
2017-07-24T02:02:37.887Z,25.12
2017-07-24T02:05:05.502Z,25.09
2017-07-24T02:07:33.109Z,25.13
2017-07-24T02:10:00.737Z,25.29
2017-07-24T02:12:28.293Z,25.37
2017-07-24T02:14:55.926Z,25.43
2017-07-24T02:17:23.590Z,25.50
2017-07-24T02:19:51.175Z,25.45
2017-07-24T02:22:18.853Z,25.45
2017-07-24T02:24:46.450Z,25.47
2017-07-24T02:27:14.037Z,25.50
2017-07-24T02:29:41.652Z,25.47
2017-07-24T02:32:09.251Z,25.48
2017-07-24T02:34:36.868Z,25.42
2017-07-24T02:37:04.450Z,25.37
2017-07-24T02:39:33.025Z,25.34
2017-07-24T02:42:00.696Z,25.17
2017-07-24T02:44:28.274Z,25.22
2017-07-24T02:46:55.876Z,25.19
2017-07-24T02:49:23.469Z,25.17
2017-07-24T02:51:51.018Z,25.15
2017-07-24T02:54:18.611Z,25.29
2017-07-24T02:56:47.234Z,25.31
2017-07-24T02:59:14.857Z,25.33
2017-07-24T03:01:42.434Z,25.08
2017-07-24T03:04:10.097Z,24.94
2017-07-24T03:06:37.798Z,24.82
2017-07-24T03:09:05.476Z,24.55
2017-07-24T03:11:33.533Z,24.56
2017-07-24T03:14:01.141Z,24.72
2017-07-24T03:16:28.749Z,24.82
2017-07-24T03:18:57.195Z,24.83
2017-07-24T03:21:24.758Z,24.95
2017-07-24T03:23:52.383Z,24.95
2017-07-24T03:26:19.946Z,24.96
2017-07-24T03:28:48.380Z,25.01
2017-07-24T03:31:15.990Z,25.05
2017-07-24T03:33:43.612Z,25.11
2017-07-24T03:36:11.385Z,25.00
2017-07-24T03:38:39.029Z,24.82
2017-07-24T03:41:06.622Z,24.84
2017-07-24T03:43:34.400Z,24.75
2017-07-24T03:46:02.119Z,24.65
2017-07-24T03:48:29.961Z,24.78
2017-07-24T03:50:57.549Z,24.92
2017-07-24T03:53:25.171Z,25.06
2017-07-24T03:55:52.772Z,25.09
2017-07-24T03:58:20.583Z,24.94
2017-07-24T04:00:48.228Z,25.02
2017-07-24T04:03:15.812Z,25.09
2017-07-24T04:05:43.416Z,24.99
2017-07-24T04:08:13.437Z,25.05
2017-07-24T04:10:41.453Z,24.93
2017-07-24T04:13:09.099Z,24.84
2017-07-24T04:15:37.698Z,24.86
2017-07-24T04:18:05.376Z,24.89
2017-07-24T04:20:32.977Z,25.10
2017-07-24T04:23:00.594Z,25.11
2017-07-24T04:25:28.819Z,25.16
2017-07-24T04:27:56.419Z,25.77
2017-07-24T04:30:24.183Z,26.22
2017-07-24T04:32:51.758Z,26.41
2017-07-24T04:35:19.293Z,26.52
2017-07-24T04:37:46.881Z,26.51
2017-07-24T04:40:14.527Z,26.71
2017-07-24T04:42:42.079Z,26.83
2017-07-24T04:45:09.691Z,26.79
2017-07-24T04:47:37.286Z,26.84
2017-07-24T04:50:05.279Z,27.01
2017-07-24T04:52:32.909Z,27.01
2017-07-24T04:55:00.491Z,27.08
2017-07-24T04:57:28.304Z,27.27
2017-07-24T04:59:56.082Z,27.17
2017-07-24T05:02:23.784Z,27.05
2017-07-24T05:04:51.305Z,26.59
2017-07-24T05:07:18.925Z,26.40
2017-07-24T05:09:46.740Z,26.12
2017-07-24T05:12:14.335Z,25.91
2017-07-24T05:14:41.945Z,25.69
2017-07-24T05:17:09.638Z,25.53
2017-07-24T05:19:37.175Z,25.10
2017-07-24T05:22:04.811Z,25.07
2017-07-24T05:24:32.447Z,25.17
2017-07-24T05:27:00.022Z,25.34
2017-07-24T05:29:27.636Z,25.67
2017-07-24T05:31:55.288Z,26.00
2017-07-24T05:34:22.888Z,26.13
2017-07-24T05:36:50.633Z,26.19
2017-07-24T05:39:18.230Z,26.48
2017-07-24T05:41:45.830Z,26.73
2017-07-24T05:44:13.444Z,27.05
2017-07-24T05:46:41.321Z,27.31
2017-07-24T05:49:08.867Z,27.77
2017-07-24T05:51:36.457Z,27.65
2017-07-24T05:54:04.059Z,27.83
2017-07-24T05:56:31.652Z,28.03
2017-07-24T05:58:59.280Z,27.90
2017-07-24T06:01:26.878Z,27.74
2017-07-24T06:03:54.483Z,27.65
2017-07-24T06:06:22.057Z,27.66
2017-07-24T06:08:49.633Z,27.47
2017-07-24T06:11:17.222Z,27.24
2017-07-24T06:13:44.818Z,27.14
2017-07-24T06:16:12.398Z,27.06
2017-07-24T06:18:40.002Z,27.12
2017-07-24T06:21:07.794Z,27.26
2017-07-24T06:23:35.574Z,27.29
2017-07-24T06:26:03.977Z,27.22
2017-07-24T06:28:31.723Z,27.34
2017-07-24T06:30:59.330Z,27.48
2017-07-24T06:33:26.934Z,27.44
2017-07-24T06:35:54.512Z,27.63
2017-07-24T06:38:22.093Z,27.55
2017-07-24T06:40:49.649Z,27.71
2017-07-24T06:43:17.194Z,27.94
2017-07-24T06:45:44.976Z,28.23
2017-07-24T06:48:12.519Z,28.41
2017-07-24T06:50:40.106Z,28.66
2017-07-24T06:53:07.750Z,29.07
2017-07-24T06:55:35.352Z,29.35
2017-07-24T06:58:02.925Z,29.89
2017-07-24T07:00:30.638Z,29.97
2017-07-24T07:02:58.250Z,29.56
2017-07-24T07:05:26.026Z,29.33
2017-07-24T07:07:53.625Z,29.36
2017-07-24T07:10:21.394Z,29.51
2017-07-24T07:12:48.993Z,29.44
2017-07-24T07:15:16.772Z,29.41
2017-07-24T07:17:44.364Z,29.71
2017-07-24T07:20:12.144Z,29.81
2017-07-24T07:22:39.753Z,30.01
2017-07-24T07:25:07.567Z,29.94
2017-07-24T07:27:35.330Z,30.02
2017-07-24T07:30:02.968Z,30.12
2017-07-24T07:32:30.559Z,30.19
2017-07-24T07:34:58.172Z,30.45
2017-07-24T07:37:25.764Z,30.91
2017-07-24T07:39:53.387Z,31.16
2017-07-24T07:42:21.002Z,31.53
2017-07-24T07:44:48.586Z,31.45
2017-07-24T07:47:16.173Z,31.87
2017-07-24T07:49:43.735Z,31.80
2017-07-24T07:52:11.335Z,31.74
2017-07-24T07:54:38.996Z,31.04
2017-07-24T07:57:06.546Z,31.36
2017-07-24T07:59:34.187Z,31.40
2017-07-24T08:02:01.804Z,31.78
2017-07-24T08:04:29.415Z,31.67
2017-07-24T08:06:57.177Z,31.99
2017-07-24T08:09:24.782Z,32.21
2017-07-24T08:11:52.549Z,32.17
2017-07-24T08:14:20.341Z,31.71
2017-07-24T08:16:47.973Z,31.27
2017-07-24T08:19:15.552Z,31.41
2017-07-24T08:21:43.172Z,31.84
2017-07-24T08:24:10.770Z,32.29
2017-07-24T08:26:38.364Z,32.31
2017-07-24T08:29:05.915Z,32.49
2017-07-24T08:31:33.503Z,33.04
2017-07-24T08:34:01.098Z,32.59
2017-07-24T08:36:28.820Z,32.51
2017-07-24T08:38:57.319Z,32.57
2017-07-24T08:41:24.940Z,32.71
2017-07-24T08:43:52.544Z,33.18
2017-07-24T08:46:20.158Z,33.49
2017-07-24T08:48:48.460Z,33.01
2017-07-24T08:51:16.060Z,32.62
2017-07-24T08:53:43.671Z,32.60
2017-07-24T08:56:11.247Z,32.60
2017-07-24T08:58:38.888Z,32.99
2017-07-24T09:01:06.523Z,33.31
2017-07-24T09:03:34.121Z,32.97
2017-07-24T09:06:01.880Z,33.29
2017-07-24T09:08:29.585Z,32.88
2017-07-24T09:10:57.179Z,32.78
2017-07-24T09:13:24.757Z,32.64
2017-07-24T09:15:52.369Z,32.39
2017-07-24T09:18:20.813Z,32.76
2017-07-24T09:20:49.657Z,32.37
2017-07-24T09:23:17.285Z,33.05
2017-07-24T09:25:44.830Z,32.52
2017-07-24T09:28:12.428Z,32.48
2017-07-24T09:30:40.014Z,32.77
2017-07-24T09:33:07.559Z,33.31
2017-07-24T09:35:35.363Z,33.57
2017-07-24T09:38:02.999Z,33.49
2017-07-24T09:40:30.602Z,33.31
2017-07-24T09:42:58.353Z,33.24
2017-07-24T09:45:25.958Z,33.87
2017-07-24T09:47:54.413Z,33.90
2017-07-24T09:50:21.962Z,34.35
2017-07-24T09:52:49.567Z,33.93
2017-07-24T09:55:17.197Z,33.42
2017-07-24T09:57:44.949Z,33.68
2017-07-24T10:00:12.831Z,33.64
2017-07-24T10:02:40.393Z,33.56
2017-07-24T10:05:08.064Z,33.57
2017-07-24T10:07:35.691Z,33.96
2017-07-24T10:10:03.310Z,34.45
2017-07-24T10:12:31.803Z,34.42
2017-07-24T10:15:00.331Z,33.98
2017-07-24T10:17:28.083Z,33.75
2017-07-24T10:19:55.681Z,33.83
2017-07-24T10:22:23.461Z,34.08
2017-07-24T10:24:51.179Z,34.40
2017-07-24T10:27:18.770Z,34.90
2017-07-24T10:29:46.431Z,35.08
2017-07-24T10:32:14.101Z,35.58
2017-07-24T10:34:45.898Z,35.53
2017-07-24T10:37:13.496Z,35.31
2017-07-24T10:39:41.554Z,35.64
2017-07-24T10:42:09.110Z,36.15
2017-07-24T10:44:36.681Z,36.19
2017-07-24T10:47:04.397Z,35.90
2017-07-24T10:49:32.221Z,35.68
2017-07-24T10:52:00.056Z,35.46
2017-07-24T10:54:28.210Z,35.75
2017-07-24T10:56:55.860Z,36.27
2017-07-24T10:59:23.506Z,36.63
2017-07-24T11:01:51.068Z,36.25
2017-07-24T11:04:18.599Z,35.78
2017-07-24T11:06:46.189Z,35.44
2017-07-24T11:09:13.867Z,35.54
2017-07-24T11:11:41.647Z,35.25
2017-07-24T11:14:09.437Z,35.08
2017-07-24T11:16:37.046Z,35.06
2017-07-24T11:19:05.115Z,35.14
2017-07-24T11:21:32.638Z,35.42
2017-07-24T11:24:00.220Z,35.34
2017-07-24T11:26:27.815Z,35.25
2017-07-24T11:28:55.380Z,34.72
2017-07-24T11:31:23.095Z,34.64
2017-07-24T11:33:50.911Z,34.48
2017-07-24T11:36:18.474Z,34.75
2017-07-24T11:38:46.095Z,35.02
2017-07-24T11:41:13.881Z,34.68
2017-07-24T11:43:41.583Z,34.43
2017-07-24T11:46:09.245Z,34.14
2017-07-24T11:48:37.168Z,34.33
2017-07-24T11:51:04.708Z,34.31
2017-07-24T11:53:32.369Z,34.03
2017-07-24T11:55:59.949Z,34.00
2017-07-24T11:58:27.567Z,34.18
2017-07-24T12:00:55.236Z,34.14
2017-07-24T12:03:22.813Z,34.07
2017-07-24T12:05:50.450Z,33.81
2017-07-24T12:08:18.043Z,33.28
2017-07-24T12:10:45.703Z,33.39
2017-07-24T12:13:13.527Z,33.53
2017-07-24T12:15:41.934Z,33.47
2017-07-24T12:18:09.489Z,33.41
2017-07-24T12:20:37.026Z,33.41
2017-07-24T12:23:04.587Z,33.51
2017-07-24T12:25:32.209Z,33.36
2017-07-24T12:27:59.885Z,33.15
2017-07-24T12:30:28.823Z,33.23
2017-07-24T12:32:57.041Z,33.11
2017-07-24T12:35:24.606Z,33.09
2017-07-24T12:37:52.249Z,33.02
2017-07-24T12:40:20.594Z,33.11
2017-07-24T12:42:48.170Z,32.91
2017-07-24T12:45:15.859Z,32.93
2017-07-24T12:47:43.489Z,32.31
2017-07-24T12:50:11.034Z,32.28
2017-07-24T12:52:38.643Z,32.24
2017-07-24T12:55:06.459Z,32.13
2017-07-24T12:57:34.074Z,32.19
2017-07-24T13:00:01.678Z,32.05
2017-07-24T13:02:29.284Z,31.82
2017-07-24T13:04:56.891Z,31.78
2017-07-24T13:07:24.518Z,31.77
2017-07-24T13:09:52.099Z,31.87
2017-07-24T13:12:19.776Z,31.86
2017-07-24T13:14:47.339Z,31.79
2017-07-24T13:17:14.935Z,31.73
2017-07-24T13:19:42.691Z,31.52
2017-07-24T13:22:10.313Z,31.66
2017-07-24T13:24:37.917Z,31.47
2017-07-24T13:27:05.664Z,31.55
2017-07-24T13:29:33.260Z,31.75
2017-07-24T13:32:00.983Z,31.97
2017-07-24T13:34:28.548Z,32.11
2017-07-24T13:36:57.010Z,32.00
2017-07-24T13:39:24.650Z,31.82
2017-07-24T13:41:52.227Z,31.96
2017-07-24T13:44:19.795Z,32.04
2017-07-24T13:46:47.445Z,32.10
2017-07-24T13:49:15.116Z,32.17
2017-07-24T13:51:42.718Z,32.25
2017-07-24T13:54:10.505Z,32.33
2017-07-24T13:56:38.071Z,32.25
2017-07-24T13:59:05.663Z,32.37
2017-07-24T14:01:33.249Z,32.37
2017-07-24T14:04:00.847Z,32.42
2017-07-24T14:06:28.649Z,32.32
2017-07-24T14:08:56.319Z,32.67
2017-07-24T14:11:23.892Z,32.78
2017-07-24T14:13:51.467Z,32.86
2017-07-24T14:16:19.086Z,33.08
2017-07-24T14:18:46.657Z,33.06
2017-07-24T14:21:14.265Z,32.88
2017-07-24T14:23:41.842Z,33.08
2017-07-24T14:26:10.146Z,33.11
2017-07-24T14:28:37.795Z,33.22
2017-07-24T14:31:05.420Z,33.33
2017-07-24T14:33:32.972Z,33.29
2017-07-24T14:36:00.547Z,33.41
2017-07-24T14:38:28.227Z,33.42
2017-07-24T14:40:55.824Z,33.39
2017-07-24T14:43:23.973Z,33.41
2017-07-24T14:45:51.811Z,33.45
2017-07-24T14:48:19.378Z,33.38
2017-07-24T14:50:47.012Z,33.48
2017-07-24T14:53:15.101Z,33.41
2017-07-24T14:55:42.911Z,33.42
2017-07-24T14:58:10.534Z,33.44
2017-07-24T15:00:38.144Z,33.42
2017-07-24T15:03:06.546Z,33.34
2017-07-24T15:05:34.480Z,33.42
2017-07-24T15:08:02.078Z,33.47
2017-07-24T15:10:29.630Z,33.29
2017-07-24T15:12:57.238Z,33.42
2017-07-24T15:15:24.826Z,33.40
2017-07-24T15:17:52.418Z,33.44
2017-07-24T15:20:20.839Z,33.29
2017-07-24T15:22:48.414Z,33.27
2017-07-24T15:25:15.980Z,33.23
2017-07-24T15:27:43.543Z,33.21
2017-07-24T15:30:11.943Z,33.00
2017-07-24T15:32:39.530Z,33.08
2017-07-24T15:35:07.110Z,33.26
2017-07-24T15:37:35.490Z,33.32
2017-07-24T15:40:03.469Z,33.20
2017-07-24T15:42:31.946Z,33.10
2017-07-24T15:44:59.609Z,33.01
2017-07-24T15:47:27.146Z,32.97
2017-07-24T15:49:54.714Z,32.97
2017-07-24T15:52:22.315Z,32.83
2017-07-24T15:54:49.858Z,32.88
2017-07-24T15:57:17.429Z,32.92
2017-07-24T15:59:45.048Z,32.88
2017-07-24T16:02:12.710Z,32.86
2017-07-24T16:04:41.350Z,32.86
2017-07-24T16:07:09.305Z,32.76
2017-07-24T16:09:36.894Z,32.80
2017-07-24T16:12:04.721Z,32.63
2017-07-24T16:14:32.484Z,32.69
2017-07-24T16:17:00.096Z,32.70
2017-07-24T16:19:27.923Z,32.56
2017-07-24T16:21:55.506Z,32.72
2017-07-24T16:24:23.120Z,32.73
2017-07-24T16:26:50.718Z,32.67
2017-07-24T16:29:18.330Z,32.68
2017-07-24T16:31:45.932Z,32.68
2017-07-24T16:34:13.529Z,32.62
2017-07-24T16:36:41.080Z,32.57
2017-07-24T16:39:08.730Z,32.52
2017-07-24T16:41:36.302Z,32.43
2017-07-24T16:44:03.938Z,32.38
2017-07-24T16:46:32.278Z,32.34
2017-07-24T16:48:59.898Z,32.16
2017-07-24T16:51:27.531Z,32.14
2017-07-24T16:53:55.168Z,32.12
2017-07-24T16:56:22.948Z,32.02
2017-07-24T16:58:50.776Z,31.90
2017-07-24T17:01:18.715Z,31.93
2017-07-24T17:03:46.267Z,31.79
2017-07-24T17:06:13.798Z,31.87
2017-07-24T17:08:41.389Z,31.80
2017-07-24T17:11:08.960Z,31.77
2017-07-24T17:13:36.555Z,31.83
2017-07-24T17:16:04.154Z,31.62
2017-07-24T17:18:31.902Z,31.42
2017-07-24T17:21:00.253Z,31.35
2017-07-24T17:23:29.612Z,31.34
2017-07-24T17:25:59.592Z,31.27
2017-07-24T17:28:28.777Z,31.30
2017-07-24T17:31:02.353Z,31.12
2017-07-24T17:33:36.239Z,30.90
2017-07-24T17:36:06.695Z,30.97
2017-07-24T17:38:35.102Z,30.94
2017-07-24T17:41:03.201Z,30.85
2017-07-24T17:43:30.817Z,30.77
2017-07-24T17:48:37.507Z,30.62
2017-07-24T17:51:05.381Z,30.53
2017-07-24T17:53:33.597Z,30.52
2017-07-24T17:56:01.201Z,30.48
2017-07-24T17:58:29.686Z,30.49
2017-07-24T18:00:57.469Z,30.45
2017-07-24T18:03:26.824Z,30.47
2017-07-24T18:05:55.919Z,30.42
2017-07-24T18:08:24.820Z,30.46
2017-07-24T18:10:52.398Z,30.29
2017-07-24T18:13:20.905Z,30.32
2017-07-24T18:15:48.577Z,30.25
2017-07-24T18:18:19.147Z,30.11
2017-07-24T18:20:48.158Z,30.05
2017-07-24T18:23:15.812Z,30.00
2017-07-24T18:25:44.126Z,29.89
2017-07-24T18:28:12.250Z,29.94
2017-07-24T18:30:39.864Z,29.79
2017-07-24T18:33:09.632Z,29.79
2017-07-24T18:35:39.366Z,29.84
2017-07-24T18:38:07.322Z,29.82
2017-07-24T18:40:37.329Z,29.79
2017-07-24T18:43:05.924Z,29.79
2017-07-24T18:45:38.023Z,29.73
2017-07-24T18:48:07.015Z,29.82
2017-07-24T18:50:36.199Z,29.78
2017-07-24T18:53:05.127Z,29.75
2017-07-24T18:55:35.518Z,29.67
2017-07-24T18:58:04.358Z,29.68
2017-07-24T19:00:32.357Z,29.68
2017-07-24T19:03:03.768Z,29.59
2017-07-24T19:05:32.953Z,29.37
2017-07-24T19:08:00.702Z,29.16
2017-07-24T19:10:29.307Z,29.22
2017-07-24T19:12:57.710Z,29.23
2017-07-24T19:15:25.600Z,29.18
2017-07-24T19:17:55.024Z,29.14
2017-07-24T19:20:49.979Z,29.10
2017-07-24T19:23:19.710Z,28.85
2017-07-24T19:25:56.222Z,28.70
2017-07-24T19:31:29.565Z,28.61
2017-07-24T19:34:02.265Z,28.67
2017-07-24T19:36:31.265Z,28.55
2017-07-24T19:39:01.115Z,28.57
2017-07-24T19:41:31.049Z,28.48
2017-07-24T19:44:00.192Z,28.51
2017-07-24T19:46:44.401Z,28.48
2017-07-24T19:49:15.480Z,28.43
2017-07-24T19:51:44.137Z,28.56
2017-07-24T19:54:13.338Z,28.57
2017-07-24T19:56:42.047Z,28.46
2017-07-24T19:59:09.907Z,28.38
2017-07-24T20:01:37.716Z,28.34
2017-07-24T20:04:06.195Z,28.29
2017-07-24T20:06:35.068Z,28.13
2017-07-24T20:09:07.097Z,28.01
2017-07-24T20:11:40.045Z,28.13
2017-07-24T20:14:11.298Z,28.03
2017-07-24T20:19:59.643Z,27.66
2017-07-24T20:22:27.590Z,27.68
2017-07-24T20:24:55.233Z,27.72
2017-07-24T20:27:22.879Z,27.62
2017-07-24T20:29:50.414Z,27.74
2017-07-24T20:32:18.017Z,27.80
2017-07-24T20:34:45.780Z,27.73
2017-07-24T20:37:13.460Z,27.69
2017-07-24T20:39:41.318Z,27.45
2017-07-24T20:42:09.035Z,27.47
2017-07-24T20:44:36.628Z,27.17
2017-07-24T20:47:04.422Z,27.20
2017-07-24T20:49:32.044Z,27.19
2017-07-24T20:52:00.576Z,27.31
2017-07-24T20:54:28.243Z,27.29
2017-07-24T20:56:55.917Z,27.26
2017-07-24T20:59:23.540Z,27.31
2017-07-24T21:01:51.190Z,27.38
2017-07-24T21:04:18.889Z,27.31
2017-07-24T21:06:46.974Z,27.08
2017-07-24T21:09:15.232Z,27.03
2017-07-24T21:11:46.334Z,26.89
2017-07-24T21:14:17.140Z,26.91
2017-07-24T21:16:45.277Z,26.91
2017-07-24T21:19:13.189Z,26.85
2017-07-24T21:21:40.887Z,27.02
2017-07-24T21:24:09.204Z,27.06
2017-07-24T21:26:36.812Z,27.16
2017-07-24T21:29:04.461Z,27.27
2017-07-24T21:31:33.224Z,27.30
2017-07-24T21:34:00.898Z,27.39
2017-07-24T21:36:28.538Z,27.46
2017-07-24T21:38:56.157Z,27.50
2017-07-24T21:41:23.930Z,27.21
2017-07-24T21:43:51.557Z,26.83
2017-07-24T21:46:21.049Z,26.94
2017-07-24T21:48:48.678Z,26.99
2017-07-24T21:51:17.305Z,27.17
2017-07-24T21:53:44.950Z,27.19
2017-07-24T21:56:12.556Z,27.32
2017-07-24T21:58:40.123Z,27.17
2017-07-24T22:01:07.762Z,27.05
2017-07-24T22:03:35.366Z,27.05
2017-07-24T22:06:02.957Z,26.98
2017-07-24T22:08:31.230Z,26.86
2017-07-24T22:10:58.907Z,26.86
2017-07-24T22:13:26.510Z,27.04
2017-07-24T22:15:54.440Z,27.17
2017-07-24T22:18:22.050Z,27.10
2017-07-24T22:20:49.660Z,27.20
2017-07-24T22:23:17.327Z,27.31
2017-07-24T22:25:44.923Z,27.47
2017-07-24T22:28:12.547Z,27.43
2017-07-24T22:30:40.197Z,27.41
2017-07-24T22:33:07.794Z,27.36
2017-07-24T22:35:35.492Z,27.37
2017-07-24T22:38:03.206Z,27.38
2017-07-24T22:40:30.835Z,27.43
2017-07-24T22:42:58.450Z,27.42
2017-07-24T22:45:26.134Z,27.30
2017-07-24T22:47:53.751Z,27.20
2017-07-24T22:50:21.323Z,27.06
2017-07-24T22:52:49.011Z,27.00
2017-07-24T22:55:17.991Z,26.84
2017-07-24T22:57:45.734Z,26.67
2017-07-24T23:00:13.451Z,27.05
2017-07-24T23:02:41.826Z,27.11
2017-07-24T23:05:09.494Z,27.09
2017-07-24T23:07:37.168Z,27.12
2017-07-24T23:10:04.930Z,27.19
2017-07-24T23:12:32.589Z,27.07
2017-07-24T23:15:00.217Z,27.10
2017-07-24T23:17:27.809Z,26.63
2017-07-24T23:19:56.203Z,26.60
2017-07-24T23:22:24.249Z,26.73
2017-07-24T23:24:51.864Z,26.74
2017-07-24T23:27:22.243Z,26.60
2017-07-24T23:29:49.900Z,26.42
2017-07-24T23:32:17.499Z,26.45
2017-07-24T23:34:45.153Z,26.46
2017-07-24T23:37:12.730Z,26.18
2017-07-24T23:39:41.133Z,26.17
2017-07-24T23:42:08.855Z,26.29
2017-07-24T23:44:36.513Z,26.41
2017-07-24T23:47:04.160Z,26.55
2017-07-24T23:49:31.872Z,26.55
2017-07-24T23:51:59.489Z,26.72
2017-07-24T23:54:27.383Z,26.76
2017-07-24T23:56:54.993Z,26.80
2017-07-24T23:59:22.585Z,26.89
